createdAt,value
2022-11-24T00:01:08.938Z,10.00
2022-11-24T00:03:45.297Z,9.20
2022-11-24T00:09:03.099Z,15.38
2022-11-24T00:11:36.211Z,9.50
2022-11-24T00:14:06.079Z,9.43
2022-11-24T00:16:35.426Z,10.15
2022-11-24T00:19:05.587Z,9.60
2022-11-24T00:21:33.084Z,9.55
2022-11-24T00:24:00.640Z,11.30
2022-11-24T00:26:34.627Z,8.93
2022-11-24T00:29:05.887Z,13.13
2022-11-24T00:31:39.621Z,11.38
2022-11-24T00:34:10.809Z,12.60
2022-11-24T00:36:39.963Z,13.75
2022-11-24T00:39:11.300Z,12.85
2022-11-24T00:41:39.579Z,12.52
2022-11-24T00:44:07.011Z,13.88
2022-11-24T00:46:34.984Z,12.18
2022-11-24T00:49:02.218Z,10.88
2022-11-24T00:51:54.715Z,9.45
2022-11-24T00:54:43.325Z,11.20
2022-11-24T00:57:10.242Z,12.23
2022-11-24T00:59:36.905Z,9.90
2022-11-24T01:02:05.171Z,13.13
2022-11-24T01:04:32.373Z,10.85
2022-11-24T01:07:07.916Z,11.68
2022-11-24T01:12:05.787Z,7.55
2022-11-24T01:14:34.056Z,12.43
2022-11-24T01:17:00.997Z,11.13
2022-11-24T01:19:53.851Z,13.43
2022-11-24T01:22:42.838Z,9.07
2022-11-24T01:25:11.550Z,11.30
2022-11-24T01:27:42.670Z,15.05
2022-11-24T01:30:11.214Z,13.32
2022-11-24T01:32:41.018Z,8.98
2022-11-24T01:35:09.010Z,8.88
2022-11-24T01:37:37.552Z,10.80
2022-11-24T01:40:05.842Z,11.85
2022-11-24T01:42:51.041Z,14.10
2022-11-24T01:45:42.191Z,9.50
2022-11-24T01:48:30.626Z,11.00
2022-11-24T01:51:08.574Z,9.18
2022-11-24T01:53:43.542Z,12.93
2022-11-24T01:56:11.134Z,13.57
2022-11-24T01:58:43.461Z,13.82
2022-11-24T02:01:10.960Z,12.70
2022-11-24T02:03:44.006Z,13.20
2022-11-24T02:06:32.756Z,12.43
2022-11-24T02:10:00.345Z,12.25
2022-11-24T02:12:49.058Z,9.77
2022-11-24T02:15:40.368Z,15.18
2022-11-24T02:18:09.823Z,11.27
2022-11-24T02:20:36.692Z,8.95
2022-11-24T02:23:15.460Z,12.13
2022-11-24T02:25:50.539Z,13.85
2022-11-24T02:28:33.955Z,9.75
2022-11-24T02:31:04.631Z,10.43
2022-11-24T02:33:40.122Z,15.45
2022-11-24T02:36:07.707Z,9.38
2022-11-24T02:38:36.228Z,8.75
2022-11-24T02:41:08.055Z,8.90
2022-11-24T02:43:42.441Z,9.90
2022-11-24T02:46:10.928Z,8.77
2022-11-24T02:48:40.640Z,10.88
2022-11-24T02:51:10.015Z,9.52
2022-11-24T02:53:44.555Z,9.23
2022-11-24T02:56:12.657Z,6.95
2022-11-24T02:58:41.815Z,9.57
2022-11-24T03:01:09.537Z,7.55
2022-11-24T03:06:05.084Z,8.75
2022-11-24T03:08:35.064Z,8.50
2022-11-24T03:11:03.213Z,7.60
2022-11-24T03:13:38.487Z,7.07
2022-11-24T03:16:56.985Z,9.40
2022-11-24T03:19:35.833Z,6.78
2022-11-24T03:22:03.671Z,8.10
2022-11-24T03:24:31.368Z,9.75
2022-11-24T03:27:01.152Z,9.98
2022-11-24T03:29:53.166Z,4.47
2022-11-24T03:32:35.293Z,7.28
2022-11-24T03:35:05.076Z,8.32
2022-11-24T03:37:57.351Z,6.25
2022-11-24T03:40:31.345Z,6.78
2022-11-24T03:42:59.545Z,8.00
2022-11-24T03:45:48.087Z,5.82
2022-11-24T03:48:16.515Z,5.05
2022-11-24T03:51:05.444Z,3.75
2022-11-24T03:53:41.013Z,6.10
2022-11-24T03:56:08.618Z,6.40
2022-11-24T03:58:36.793Z,6.32
2022-11-24T04:01:04.288Z,8.48
2022-11-24T04:03:56.249Z,7.88
2022-11-24T04:06:31.666Z,5.40
2022-11-24T04:09:00.689Z,7.68
2022-11-24T04:12:07.520Z,10.98
2022-11-24T04:14:36.153Z,13.73
2022-11-24T04:17:04.342Z,13.27
2022-11-24T04:20:00.717Z,11.07
2022-11-24T04:22:30.743Z,9.15
2022-11-24T04:25:04.310Z,6.93
2022-11-24T04:27:41.192Z,9.57
2022-11-24T04:32:40.384Z,6.85
2022-11-24T04:35:14.614Z,8.82
2022-11-24T04:37:47.841Z,12.63
2022-11-24T04:40:15.810Z,15.07
2022-11-24T04:42:45.101Z,10.00
2022-11-24T04:45:13.219Z,9.73
2022-11-24T04:47:46.485Z,8.65
2022-11-24T04:50:14.063Z,10.30
2022-11-24T04:52:41.146Z,8.15
2022-11-24T04:55:09.784Z,12.07
2022-11-24T04:57:38.525Z,10.38
2022-11-24T05:00:08.025Z,11.05
2022-11-24T05:02:36.911Z,11.02
2022-11-24T05:05:08.188Z,11.68
2022-11-24T05:07:39.531Z,11.75
2022-11-24T05:10:33.946Z,9.75
2022-11-24T05:13:07.015Z,9.35
2022-11-24T05:15:45.797Z,9.05
2022-11-24T05:18:35.744Z,8.15
2022-11-24T05:21:09.043Z,12.30
2022-11-24T05:23:54.390Z,10.45
2022-11-24T05:26:51.875Z,11.30
2022-11-24T05:29:39.255Z,11.23
2022-11-24T05:32:10.236Z,7.97
2022-11-24T05:34:41.071Z,8.25
2022-11-24T05:37:10.326Z,10.13
2022-11-24T05:39:45.621Z,14.82
2022-11-24T05:42:32.035Z,14.70
2022-11-24T05:45:01.015Z,19.08
2022-11-24T05:47:55.401Z,14.73
2022-11-24T05:50:40.596Z,11.38
2022-11-24T05:53:16.475Z,13.18
2022-11-24T05:56:13.846Z,11.88
2022-11-24T05:58:46.957Z,13.52
2022-11-24T06:01:57.568Z,26.38
2022-11-24T06:04:45.822Z,23.83
2022-11-24T06:07:14.402Z,15.50
2022-11-24T06:09:44.340Z,17.08
2022-11-24T06:12:16.414Z,16.48
2022-11-24T06:15:11.760Z,18.00
2022-11-24T06:17:41.549Z,24.80
2022-11-24T06:20:12.675Z,22.77
2022-11-24T06:22:50.876Z,21.48
2022-11-24T06:25:51.399Z,19.35
2022-11-24T06:28:44.534Z,18.75
2022-11-24T06:34:54.783Z,19.67
2022-11-24T06:37:46.104Z,15.05
2022-11-24T06:40:14.939Z,13.98
2022-11-24T06:42:56.853Z,9.50
2022-11-24T06:45:55.284Z,28.33
2022-11-24T06:49:06.743Z,43.13
2022-11-24T06:51:50.539Z,38.00
2022-11-24T06:54:52.248Z,28.30
2022-11-24T06:57:51.461Z,23.92
2022-11-24T07:03:11.674Z,33.25
2022-11-24T07:04:46.087Z,19.50
2022-11-24T07:07:16.425Z,37.45
2022-11-24T07:09:43.181Z,80.22
2022-11-24T07:14:37.597Z,28.60
2022-11-24T07:17:04.771Z,16.80
2022-11-24T07:26:06.663Z,20.60
2022-11-24T07:28:47.648Z,14.15
2022-11-24T07:31:40.250Z,16.17
2022-11-24T07:34:08.950Z,22.88
2022-11-24T07:36:35.464Z,17.52
2022-11-24T07:39:02.591Z,16.40
2022-11-24T07:41:44.626Z,16.10
2022-11-24T07:44:16.805Z,17.77
2022-11-24T07:46:56.721Z,16.15
2022-11-24T07:49:48.832Z,10.80
2022-11-24T07:52:15.474Z,9.43
2022-11-24T07:54:41.956Z,13.70
2022-11-24T07:57:08.697Z,12.20
2022-11-24T07:59:51.716Z,9.27
2022-11-24T08:02:38.938Z,7.57
2022-11-24T08:05:11.773Z,13.75
2022-11-24T08:07:44.310Z,12.23
2022-11-24T08:10:11.408Z,14.20
2022-11-24T08:15:40.144Z,9.45
2022-11-24T08:18:06.975Z,11.00
2022-11-24T08:20:42.433Z,20.40
2022-11-24T08:23:09.008Z,9.35
2022-11-24T08:25:44.859Z,10.48
2022-11-24T08:28:11.676Z,8.18
2022-11-24T08:30:41.597Z,7.43
2022-11-24T08:33:08.771Z,10.25
2022-11-24T08:38:09.007Z,8.93
2022-11-24T08:40:35.515Z,14.32
2022-11-24T08:43:02.483Z,15.85
2022-11-24T08:45:54.923Z,18.63
2022-11-24T08:51:11.571Z,15.38
2022-11-24T08:53:43.748Z,16.25
2022-11-24T08:56:12.893Z,12.40
2022-11-24T08:58:40.905Z,12.52
2022-11-24T09:01:10.336Z,24.83
2022-11-24T09:03:46.623Z,33.50
2022-11-24T09:06:18.117Z,24.63
2022-11-24T09:08:45.495Z,22.30
2022-11-24T09:11:14.163Z,21.63
2022-11-24T09:13:41.433Z,32.00
2022-11-24T09:16:36.712Z,55.05
2022-11-24T09:19:05.705Z,27.42
2022-11-24T09:22:50.234Z,31.23
2022-11-24T09:26:09.422Z,24.45
2022-11-24T09:28:41.926Z,16.33
2022-11-24T09:31:12.426Z,18.35
2022-11-24T09:33:43.954Z,11.93
2022-11-24T09:36:11.158Z,13.32
2022-11-24T09:39:08.683Z,17.63
2022-11-24T09:54:17.689Z,18.42
2022-11-24T09:57:15.283Z,13.63
2022-11-24T09:59:51.468Z,13.65
2022-11-24T10:02:50.106Z,13.20
2022-11-24T10:05:16.904Z,11.75
2022-11-24T10:27:51.075Z,11.40
2022-11-24T10:30:43.882Z,18.20
2022-11-24T10:33:42.427Z,10.00
2022-11-24T10:36:16.749Z,18.23
2022-11-24T10:38:55.999Z,11.57
2022-11-24T10:41:59.374Z,11.40
2022-11-24T10:48:50.376Z,13.82
2022-11-24T10:52:02.228Z,10.68
2022-11-24T10:54:54.218Z,7.00
2022-11-24T10:57:56.385Z,12.38
2022-11-24T11:00:42.652Z,9.55
2022-11-24T11:03:49.545Z,8.32
2022-11-24T11:06:40.997Z,8.43
2022-11-24T11:09:07.602Z,11.65
2022-11-24T11:11:49.723Z,10.88
2022-11-24T11:14:41.185Z,12.45
2022-11-24T11:17:54.170Z,16.17
2022-11-24T11:20:39.590Z,14.38
2022-11-24T11:23:45.255Z,11.23
2022-11-24T11:27:16.230Z,13.25
2022-11-24T11:36:35.909Z,10.07
2022-11-24T11:39:04.769Z,11.65
2022-11-24T11:42:02.800Z,7.97
2022-11-24T11:45:02.614Z,17.35
2022-11-24T11:55:54.078Z,10.60
2022-11-24T12:07:00.448Z,13.23
2022-11-24T12:09:59.325Z,14.25
2022-11-24T12:13:00.866Z,8.82
2022-11-24T12:15:56.155Z,14.98
2022-11-24T12:30:16.056Z,10.70
2022-11-24T12:33:14.282Z,13.38
2022-11-24T12:36:49.365Z,10.68
2022-11-24T12:39:54.135Z,14.80
2022-11-24T12:43:01.909Z,10.85
2022-11-24T12:46:17.277Z,12.00
2022-11-24T12:49:53.868Z,15.98
2022-11-24T12:52:57.216Z,10.57
2022-11-24T12:56:43.143Z,14.40
2022-11-24T12:59:55.928Z,13.57
2022-11-24T13:02:45.574Z,12.02
2022-11-24T13:05:41.326Z,11.88
2022-11-24T13:08:45.254Z,12.82
2022-11-24T13:11:20.884Z,15.23
2022-11-24T13:14:11.520Z,13.85
2022-11-24T13:19:53.606Z,9.18
2022-11-24T13:22:40.609Z,11.13
2022-11-24T13:26:00.017Z,18.42
2022-11-24T13:29:06.196Z,16.27
2022-11-24T13:31:46.573Z,14.48
2022-11-24T13:34:55.851Z,13.70
2022-11-24T13:40:38.850Z,15.75
2022-11-24T13:43:05.403Z,12.30
2022-11-24T13:46:04.950Z,9.90
2022-11-24T13:48:36.840Z,12.60
2022-11-24T13:51:13.903Z,9.73
2022-11-24T13:53:53.811Z,10.85
2022-11-24T13:57:10.777Z,10.05
2022-11-24T14:00:01.624Z,18.25
2022-11-24T14:02:51.685Z,9.13
2022-11-24T14:05:44.783Z,13.02
2022-11-24T14:12:13.128Z,10.70
2022-11-24T14:14:46.683Z,6.60
2022-11-24T14:17:50.042Z,10.98
2022-11-24T14:20:42.368Z,5.35
2022-11-24T14:23:10.434Z,18.58
2022-11-24T14:28:54.935Z,24.02
2022-11-24T14:31:55.077Z,14.18
2022-11-24T14:34:58.953Z,17.70
2022-11-24T14:37:55.841Z,17.42
2022-11-24T14:40:44.496Z,14.20
2022-11-24T14:43:19.919Z,8.43
2022-11-24T14:46:04.715Z,7.78
2022-11-24T14:48:56.683Z,7.13
2022-11-24T14:52:07.635Z,11.55
2022-11-24T15:03:16.319Z,9.32
2022-11-24T15:06:05.488Z,8.82
2022-11-24T15:09:07.561Z,5.18
2022-11-24T15:11:44.414Z,7.88
2022-11-24T15:14:45.782Z,9.15
2022-11-24T15:17:21.715Z,8.10
2022-11-24T15:23:16.025Z,6.05
2022-11-24T15:25:54.682Z,9.80
2022-11-24T15:31:18.225Z,8.35
2022-11-24T15:33:49.237Z,10.93
2022-11-24T15:36:16.701Z,13.65
2022-11-24T15:38:43.468Z,13.65
2022-11-24T15:41:20.708Z,13.65
2022-11-24T15:43:47.705Z,17.08
2022-11-24T15:46:14.319Z,15.40
2022-11-24T15:49:07.397Z,9.35
2022-11-24T15:51:47.565Z,8.95
2022-11-24T15:54:16.826Z,7.45
2022-11-24T15:56:44.521Z,7.22
2022-11-24T15:59:20.203Z,13.40
2022-11-24T16:01:50.823Z,5.32
2022-11-24T16:04:17.934Z,7.85
2022-11-24T16:06:45.043Z,7.88
2022-11-24T16:09:17.343Z,6.93
2022-11-24T16:11:58.775Z,6.00
2022-11-24T16:14:25.409Z,5.05
2022-11-24T16:16:52.272Z,7.78
2022-11-24T16:19:20.477Z,8.27
2022-11-24T16:23:08.898Z,9.60
2022-11-24T16:26:07.199Z,9.15
2022-11-24T16:29:04.319Z,7.75
2022-11-24T16:31:51.826Z,6.90
2022-11-24T16:34:19.037Z,7.72
2022-11-24T16:37:04.476Z,4.28
2022-11-24T16:40:03.167Z,5.50
2022-11-24T16:42:43.251Z,7.07
2022-11-24T16:45:12.873Z,6.38
2022-11-24T16:47:43.453Z,7.07
2022-11-24T16:50:16.798Z,8.77
2022-11-24T16:53:08.790Z,6.82
2022-11-24T16:56:56.775Z,6.63
2022-11-24T16:59:24.086Z,6.15
2022-11-24T17:02:16.413Z,8.23
2022-11-24T17:08:54.918Z,7.18
2022-11-24T17:11:24.305Z,4.28
2022-11-24T22:04:27.652Z,4.13
2022-11-24T22:12:15.054Z,4.32
2022-11-24T22:15:16.275Z,4.35
2022-11-24T22:18:15.285Z,4.40
2022-11-24T22:35:26.915Z,6.72
2022-11-24T22:38:23.291Z,5.93
2022-11-24T22:41:21.437Z,5.82
2022-11-24T22:52:10.079Z,5.13
2022-11-24T22:54:55.017Z,5.45
2022-11-24T23:07:58.316Z,5.18
2022-11-24T23:10:29.148Z,7.22
2022-11-24T23:13:16.323Z,5.30
